createdAt,value
2018-09-05T00:00:28.466Z,3.47
2018-09-05T00:02:57.200Z,3.60
2018-09-05T00:05:26.011Z,3.33
2018-09-05T00:07:54.779Z,3.80
2018-09-05T00:10:23.540Z,4.63
2018-09-05T00:12:52.350Z,3.40
2018-09-05T00:15:21.096Z,3.37
2018-09-05T00:17:49.888Z,4.00
2018-09-05T00:20:18.656Z,3.53
2018-09-05T00:22:47.542Z,3.70
2018-09-05T00:25:16.352Z,4.10
2018-09-05T00:27:45.184Z,3.83
2018-09-05T00:30:13.930Z,4.13
2018-09-05T00:32:42.694Z,3.47
2018-09-05T00:35:11.546Z,4.00
2018-09-05T00:37:40.320Z,3.70
2018-09-05T00:40:09.086Z,4.00
2018-09-05T00:42:37.854Z,4.10
2018-09-05T00:45:06.678Z,4.23
2018-09-05T00:47:35.427Z,3.83
2018-09-05T00:50:04.223Z,3.90
2018-09-05T00:52:33.003Z,4.20
2018-09-05T00:55:01.773Z,3.73
2018-09-05T00:57:30.562Z,3.93
2018-09-05T00:59:59.340Z,3.53
2018-09-05T01:02:28.091Z,4.83
2018-09-05T01:04:57.354Z,3.50
2018-09-05T01:07:27.406Z,4.10
2018-09-05T01:09:56.210Z,3.90
2018-09-05T01:12:25.557Z,3.90
2018-09-05T01:14:55.006Z,4.97
2018-09-05T01:17:23.746Z,4.40
2018-09-05T01:19:52.541Z,3.90
2018-09-05T01:22:21.310Z,4.30
2018-09-05T01:24:50.114Z,4.53
2018-09-05T01:27:18.871Z,4.40
2018-09-05T01:29:47.650Z,4.00
2018-09-05T01:32:16.467Z,4.50
2018-09-05T01:34:45.262Z,4.60
2018-09-05T01:37:14.020Z,4.40
2018-09-05T01:39:42.811Z,4.10
2018-09-05T01:42:11.630Z,3.80
2018-09-05T01:44:40.698Z,4.37
2018-09-05T01:47:09.446Z,4.47
2018-09-05T01:49:38.247Z,4.17
2018-09-05T01:52:07.035Z,4.30
2018-09-05T01:54:35.826Z,4.27
2018-09-05T01:57:04.602Z,4.23
2018-09-05T01:59:33.430Z,4.27
2018-09-05T02:02:02.222Z,4.43
2018-09-05T02:04:31.028Z,5.13
2018-09-05T02:06:59.799Z,4.87
2018-09-05T02:09:28.585Z,5.00
2018-09-05T02:11:57.346Z,5.33
2018-09-05T02:14:26.120Z,4.73
2018-09-05T02:16:54.895Z,4.90
2018-09-05T02:19:23.686Z,4.63
2018-09-05T02:21:52.482Z,4.97
2018-09-05T02:24:21.246Z,5.27
2018-09-05T02:26:50.010Z,5.27
2018-09-05T02:29:18.811Z,4.77
2018-09-05T02:31:47.586Z,4.47
2018-09-05T02:34:16.383Z,4.60
2018-09-05T02:36:45.171Z,4.90
2018-09-05T02:39:13.958Z,5.03
2018-09-05T02:41:42.712Z,4.43
2018-09-05T02:44:16.901Z,4.30
2018-09-05T02:46:45.690Z,4.70
2018-09-05T02:49:14.514Z,4.53
2018-09-05T02:51:43.780Z,4.47
2018-09-05T02:54:12.635Z,4.47
2018-09-05T02:56:41.421Z,4.03
2018-09-05T02:59:10.251Z,4.10
2018-09-05T03:01:39.040Z,4.03
2018-09-05T03:04:07.773Z,4.70
2018-09-05T03:06:36.571Z,3.90
2018-09-05T03:09:06.733Z,4.07
2018-09-05T03:11:35.520Z,4.43
2018-09-05T03:14:04.318Z,3.70
2018-09-05T03:16:33.082Z,3.83
2018-09-05T03:19:08.321Z,3.57
2018-09-05T03:21:37.083Z,4.53
2018-09-05T03:24:05.874Z,3.67
2018-09-05T03:26:34.689Z,3.97
2018-09-05T03:29:03.479Z,3.70
2018-09-05T03:31:32.220Z,3.33
2018-09-05T03:34:01.025Z,3.60
2018-09-05T03:36:29.871Z,3.53
2018-09-05T03:38:58.660Z,3.23
2018-09-05T03:41:27.455Z,3.10
2018-09-05T03:43:56.240Z,3.60
2018-09-05T03:46:25.020Z,2.87
2018-09-05T03:48:53.798Z,3.27
2018-09-05T03:51:22.555Z,3.20
2018-09-05T03:53:51.344Z,3.30
2018-09-05T03:56:20.098Z,3.23
2018-09-05T03:58:48.911Z,2.73
2018-09-05T04:01:17.664Z,3.17
2018-09-05T04:03:46.439Z,3.00
2018-09-05T04:06:20.124Z,2.80
2018-09-05T04:08:50.040Z,2.93
2018-09-05T04:11:18.814Z,3.47
2018-09-05T04:13:47.603Z,2.93
2018-09-05T04:16:16.363Z,3.47
2018-09-05T04:18:45.153Z,3.90
2018-09-05T04:21:13.983Z,3.03
2018-09-05T04:23:47.791Z,3.60
2018-09-05T04:26:17.771Z,3.70
2018-09-05T04:28:46.531Z,3.50
2018-09-05T04:31:15.900Z,3.70
2018-09-05T04:33:44.716Z,3.03
2018-09-05T04:36:14.394Z,3.20
2018-09-05T04:38:43.799Z,2.90
2018-09-05T04:41:12.660Z,3.50
2018-09-05T04:43:41.456Z,3.27
2018-09-05T04:46:10.275Z,3.17
2018-09-05T04:48:39.063Z,3.03
2018-09-05T04:51:07.846Z,3.23
2018-09-05T04:53:37.093Z,5.13
2018-09-05T04:56:05.947Z,3.10
2018-09-05T04:58:34.731Z,3.03
2018-09-05T05:01:03.519Z,3.00
2018-09-05T05:03:32.258Z,3.10
2018-09-05T05:06:01.035Z,2.77
2018-09-05T05:08:29.813Z,3.20
2018-09-05T05:10:58.593Z,3.40
2018-09-05T05:13:27.370Z,3.30
2018-09-05T05:15:56.142Z,2.93
2018-09-05T05:18:25.131Z,3.97
2018-09-05T05:20:53.895Z,3.40
2018-09-05T05:23:22.731Z,2.90
2018-09-05T05:25:51.475Z,3.50
2018-09-05T05:28:20.239Z,3.40
2018-09-05T05:30:49.042Z,3.63
2018-09-05T05:33:17.812Z,3.37
2018-09-05T05:35:46.613Z,3.80
2018-09-05T05:38:15.411Z,3.40
2018-09-05T05:40:44.171Z,3.43
2018-09-05T05:43:12.938Z,3.67
2018-09-05T05:45:41.767Z,3.77
2018-09-05T05:48:10.591Z,4.13
2018-09-05T05:50:39.371Z,3.83
2018-09-05T05:53:08.494Z,3.80
2018-09-05T05:55:37.558Z,4.37
2018-09-05T05:58:06.330Z,4.30
2018-09-05T06:00:35.113Z,4.00
2018-09-05T06:03:03.927Z,4.47
2018-09-05T06:05:32.727Z,4.50
2018-09-05T06:08:01.598Z,4.93
2018-09-05T06:10:30.407Z,4.20
2018-09-05T06:12:59.522Z,4.20
2018-09-05T06:15:28.837Z,5.07
2018-09-05T06:17:57.754Z,5.17
2018-09-05T06:20:26.527Z,5.20
2018-09-05T06:22:55.270Z,4.87
2018-09-05T06:25:24.067Z,5.73
2018-09-05T06:27:52.910Z,6.17
2018-09-05T06:30:21.697Z,5.40
2018-09-05T06:32:50.524Z,5.60
2018-09-05T06:35:19.301Z,6.13
2018-09-05T06:37:48.107Z,6.23
2018-09-05T06:40:16.870Z,6.13
2018-09-05T06:42:45.632Z,7.33
2018-09-05T06:45:14.460Z,6.43
2018-09-05T06:47:43.202Z,6.23
2018-09-05T06:50:11.975Z,5.80
2018-09-05T06:52:40.714Z,5.77
2018-09-05T06:55:09.507Z,5.93
2018-09-05T06:57:38.395Z,6.33
2018-09-05T07:00:07.561Z,6.47
2018-09-05T07:02:36.418Z,6.27
2018-09-05T07:05:05.258Z,6.40
2018-09-05T07:07:34.126Z,6.83
2018-09-05T07:10:02.962Z,6.70
2018-09-05T07:12:31.740Z,6.90
2018-09-05T07:15:00.491Z,6.60
2018-09-05T07:17:29.322Z,7.43
2018-09-05T07:19:58.113Z,6.87
2018-09-05T07:22:26.851Z,6.77
2018-09-05T07:24:55.710Z,7.87
2018-09-05T07:27:24.508Z,7.13
2018-09-05T07:29:53.272Z,7.10
2018-09-05T07:32:22.060Z,7.20
2018-09-05T07:34:50.824Z,7.70
2018-09-05T07:37:19.638Z,7.50
2018-09-05T07:39:48.429Z,9.07
2018-09-05T07:42:17.179Z,8.47
2018-09-05T07:44:45.975Z,7.60
2018-09-05T07:47:14.730Z,8.17
2018-09-05T07:49:43.507Z,8.33
2018-09-05T07:52:12.295Z,8.73
2018-09-05T07:54:41.160Z,9.27
2018-09-05T07:57:10.014Z,8.50
2018-09-05T07:59:38.740Z,8.60
2018-09-05T08:02:07.547Z,9.40
2018-09-05T08:04:36.398Z,9.17
2018-09-05T08:07:05.359Z,8.90
2018-09-05T08:09:34.171Z,8.80
2018-09-05T08:12:02.923Z,9.33
2018-09-05T08:14:31.747Z,10.20
2018-09-05T08:17:00.599Z,9.47
2018-09-05T08:19:29.369Z,9.13
2018-09-05T08:21:58.130Z,9.10
2018-09-05T08:24:26.932Z,8.90
2018-09-05T08:26:55.725Z,8.20
2018-09-05T08:29:24.519Z,9.43
2018-09-05T08:31:53.299Z,9.17
2018-09-05T08:34:22.062Z,9.33
2018-09-05T08:36:51.132Z,10.07
2018-09-05T08:39:19.780Z,9.63
2018-09-05T08:44:23.768Z,8.30
2018-09-05T08:46:52.383Z,8.80
2018-09-05T08:49:21.178Z,8.43
2018-09-05T08:51:49.994Z,8.87
2018-09-05T08:54:18.786Z,8.50
2018-09-05T08:56:47.678Z,8.30
2018-09-05T08:59:16.434Z,8.40
2018-09-05T09:01:45.228Z,8.90
2018-09-05T09:04:13.990Z,8.97
2018-09-05T09:06:42.771Z,8.70
2018-09-05T09:09:12.487Z,8.87
2018-09-05T09:11:41.238Z,8.60
2018-09-05T09:14:10.706Z,9.47
2018-09-05T09:16:39.532Z,9.30
2018-09-05T09:19:08.323Z,9.33
2018-09-05T09:21:37.118Z,9.87
2018-09-05T09:24:06.398Z,9.57
2018-09-05T09:26:35.148Z,9.80
2018-09-05T09:29:03.990Z,9.87
2018-09-05T09:31:32.759Z,9.47
2018-09-05T09:34:01.542Z,10.60
2018-09-05T09:36:30.330Z,10.20
2018-09-05T09:38:59.135Z,10.27
2018-09-05T09:41:27.914Z,10.37
2018-09-05T09:43:56.755Z,10.17
2018-09-05T09:46:25.574Z,9.97
2018-09-05T09:48:54.386Z,10.07
2018-09-05T09:51:23.435Z,10.40
2018-09-05T09:53:53.146Z,9.60
2018-09-05T09:56:22.440Z,10.43
2018-09-05T09:58:51.246Z,9.50
2018-09-05T10:01:25.250Z,9.73
2018-09-05T10:03:59.448Z,10.57
2018-09-05T10:06:33.606Z,11.20
2018-09-05T10:09:07.708Z,9.53
2018-09-05T10:11:41.825Z,9.83
2018-09-05T10:14:12.114Z,10.53
2018-09-05T10:16:46.338Z,9.73
2018-09-05T10:19:15.247Z,10.73
2018-09-05T10:21:44.013Z,10.77
2018-09-05T10:24:12.783Z,10.33
2018-09-05T10:26:41.579Z,10.53
2018-09-05T10:29:10.405Z,11.00
2018-09-05T10:31:39.214Z,10.50
2018-09-05T10:34:08.290Z,10.73
2018-09-05T10:36:37.052Z,11.57
2018-09-05T10:39:07.362Z,11.73
2018-09-05T10:41:36.443Z,11.27
2018-09-05T10:44:05.415Z,11.13
2018-09-05T10:46:34.491Z,11.40
2018-09-05T10:49:03.275Z,11.33
2018-09-05T10:51:37.550Z,10.43
2018-09-05T10:54:06.523Z,10.47
2018-09-05T10:56:35.315Z,11.60
2018-09-05T10:59:04.132Z,10.50
2018-09-05T11:01:32.967Z,10.43
2018-09-05T11:04:01.719Z,10.43
2018-09-05T11:06:30.531Z,10.63
2018-09-05T11:08:59.289Z,10.10
2018-09-05T11:11:28.151Z,10.60
2018-09-05T11:13:56.919Z,10.33
2018-09-05T11:16:25.998Z,10.07
2018-09-05T11:18:54.795Z,9.57
2018-09-05T11:21:23.706Z,9.50
2018-09-05T11:23:52.508Z,10.40
2018-09-05T11:26:21.270Z,10.70
2018-09-05T11:28:50.085Z,9.37
2018-09-05T11:31:18.854Z,9.37
2018-09-05T11:33:47.599Z,9.50
2018-09-05T11:36:16.386Z,9.30
2018-09-05T11:38:45.175Z,9.37
2018-09-05T11:41:13.991Z,8.57
2018-09-05T11:43:42.863Z,8.60
2018-09-05T11:46:11.675Z,9.73
2018-09-05T11:48:40.507Z,9.43
2018-09-05T11:51:09.303Z,8.90
2018-09-05T11:53:38.091Z,9.90
2018-09-05T11:56:06.906Z,11.40
2018-09-05T11:58:35.727Z,10.90
2018-09-05T12:01:04.562Z,10.47
2018-09-05T12:03:33.655Z,10.57
2018-09-05T12:06:02.714Z,9.57
2018-09-05T12:08:31.577Z,11.23
2018-09-05T12:11:00.386Z,10.77
2018-09-05T12:13:29.231Z,11.00
2018-09-05T12:15:58.047Z,10.87
2018-09-05T12:18:26.820Z,9.87
2018-09-05T12:20:55.602Z,10.97
2018-09-05T12:23:24.412Z,11.80
2018-09-05T12:25:53.338Z,10.30
2018-09-05T12:28:22.175Z,10.90
2018-09-05T12:30:50.959Z,10.00
2018-09-05T12:33:19.735Z,11.17
2018-09-05T12:35:48.524Z,11.90
2018-09-05T12:38:17.351Z,11.17
2018-09-05T12:40:46.138Z,12.40
2018-09-05T12:43:14.958Z,10.57
2018-09-05T12:45:43.753Z,10.13
2018-09-05T12:48:12.558Z,10.90
2018-09-05T12:50:41.326Z,10.27
2018-09-05T12:53:10.153Z,10.67
2018-09-05T12:55:39.014Z,10.27
2018-09-05T12:58:08.046Z,10.40
2018-09-05T13:00:36.963Z,9.70
2018-09-05T13:03:05.745Z,10.27
2018-09-05T13:05:34.628Z,10.93
2018-09-05T13:08:03.387Z,9.97
2018-09-05T13:10:32.966Z,10.73
2018-09-05T13:13:01.733Z,9.97
2018-09-05T13:15:30.653Z,10.77
2018-09-05T13:17:59.786Z,10.87
2018-09-05T13:20:28.566Z,10.40
2018-09-05T13:22:57.403Z,10.57
2018-09-05T13:25:26.210Z,10.40
2018-09-05T13:27:54.995Z,10.53
2018-09-05T13:30:23.795Z,10.93
2018-09-05T13:32:52.555Z,9.80
2018-09-05T13:35:21.394Z,10.07
2018-09-05T13:37:50.181Z,8.67
2018-09-05T13:40:18.991Z,11.00
2018-09-05T13:42:47.742Z,10.47
2018-09-05T13:45:16.546Z,9.80
2018-09-05T13:47:45.347Z,10.17
2018-09-05T13:50:14.118Z,9.33
2018-09-05T13:52:42.922Z,10.00
2018-09-05T13:55:11.718Z,8.97
2018-09-05T13:57:40.516Z,9.13
2018-09-05T14:00:13.618Z,9.17
2018-09-05T14:02:42.709Z,9.30
2018-09-05T14:05:11.543Z,8.63
2018-09-05T14:07:40.554Z,8.17
2018-09-05T14:10:09.306Z,8.07
2018-09-05T14:12:38.138Z,8.10
2018-09-05T14:15:07.368Z,7.87
2018-09-05T14:17:36.151Z,7.93
2018-09-05T14:20:05.339Z,8.03
2018-09-05T14:22:34.155Z,7.43
2018-09-05T14:25:02.947Z,7.53
2018-09-05T14:27:31.783Z,7.23
2018-09-05T14:30:00.778Z,7.63
2018-09-05T14:32:29.530Z,8.20
2018-09-05T14:34:58.318Z,7.67
2018-09-05T14:37:27.110Z,8.23
2018-09-05T14:39:55.914Z,7.93
2018-09-05T14:42:24.882Z,7.30
2018-09-05T14:44:53.698Z,7.53
2018-09-05T14:47:22.530Z,7.73
2018-09-05T14:49:51.567Z,7.50
2018-09-05T14:52:20.362Z,6.50
2018-09-05T14:54:49.216Z,7.23
2018-09-05T14:57:18.016Z,7.30
2018-09-05T14:59:46.803Z,7.07
2018-09-05T15:02:15.604Z,8.27
2018-09-05T15:04:44.395Z,6.40
2018-09-05T15:07:13.359Z,6.90
2018-09-05T15:09:42.131Z,6.37
2018-09-05T15:12:10.922Z,6.00
2018-09-05T15:14:39.712Z,6.30
2018-09-05T15:17:08.499Z,6.33
2018-09-05T15:19:37.287Z,6.43
2018-09-05T15:22:06.114Z,7.23
2018-09-05T15:24:34.936Z,6.43
2018-09-05T15:27:03.679Z,6.70
2018-09-05T15:29:32.478Z,7.00
2018-09-05T15:32:01.243Z,6.77
2018-09-05T15:34:30.019Z,6.93
2018-09-05T15:36:58.776Z,6.80
2018-09-05T15:39:27.654Z,6.57
2018-09-05T15:41:56.420Z,5.47
2018-09-05T15:44:25.182Z,6.00
2018-09-05T15:46:53.989Z,6.50
2018-09-05T15:49:22.760Z,6.50
2018-09-05T15:51:54.614Z,6.10
2018-09-05T15:54:24.342Z,6.33
2018-09-05T15:56:53.628Z,6.03
2018-09-05T15:59:23.036Z,6.00
2018-09-05T16:01:52.303Z,5.43
2018-09-05T16:04:21.087Z,6.03
2018-09-05T16:06:49.873Z,5.10
2018-09-05T16:09:18.624Z,5.87
2018-09-05T16:11:47.411Z,6.33
2018-09-05T16:14:16.183Z,6.70
2018-09-05T16:16:44.970Z,7.17
2018-09-05T16:19:13.722Z,7.30
2018-09-05T16:21:42.516Z,7.53
2018-09-05T16:24:11.299Z,8.60
2018-09-05T16:26:40.084Z,8.30
2018-09-05T16:29:08.911Z,7.87
2018-09-05T16:31:37.693Z,8.87
2018-09-05T16:34:06.734Z,9.30
2018-09-05T16:36:35.587Z,8.83
2018-09-05T16:39:06.079Z,10.20
2018-09-05T16:41:34.848Z,7.80
2018-09-05T16:44:03.648Z,8.43
2018-09-05T16:46:32.428Z,8.20
2018-09-05T16:49:01.211Z,7.40
2018-09-05T16:51:30.026Z,7.47
2018-09-05T16:53:58.804Z,7.27
2018-09-05T16:56:27.684Z,6.73
2018-09-05T16:58:56.439Z,6.33
2018-09-05T17:01:25.234Z,5.87
2018-09-05T17:03:54.000Z,5.60
2018-09-05T17:06:22.810Z,5.73
2018-09-05T17:08:51.575Z,5.13
2018-09-05T17:11:20.420Z,4.73
2018-09-05T17:13:49.175Z,5.40
2018-09-05T17:16:17.942Z,4.93
2018-09-05T17:18:46.710Z,5.93
2018-09-05T17:21:15.502Z,5.00
2018-09-05T17:23:44.291Z,5.33
2018-09-05T17:26:13.079Z,5.07
2018-09-05T17:28:41.941Z,5.27
2018-09-05T17:31:10.798Z,4.30
2018-09-05T17:33:39.614Z,5.10
2018-09-05T17:36:08.383Z,4.60
2018-09-05T17:38:37.150Z,4.97
2018-09-05T17:41:05.915Z,4.50
2018-09-05T17:43:34.702Z,5.10
2018-09-05T17:46:03.539Z,4.40
2018-09-05T17:48:32.357Z,4.40
2018-09-05T17:51:01.110Z,5.43
2018-09-05T17:53:30.054Z,5.20
2018-09-05T17:55:58.817Z,4.73
2018-09-05T17:58:27.567Z,5.10
2018-09-05T18:00:56.842Z,5.50
2018-09-05T18:03:25.670Z,5.20
2018-09-05T18:05:54.411Z,6.00
2018-09-05T18:08:23.273Z,4.73
2018-09-05T18:10:52.110Z,5.27
2018-09-05T18:13:20.875Z,5.20
2018-09-05T18:15:49.806Z,5.50
2018-09-05T18:18:18.586Z,5.10
2018-09-05T18:20:47.336Z,5.63
2018-09-05T18:23:16.104Z,5.43
2018-09-05T18:25:44.950Z,5.53
2018-09-05T18:28:13.807Z,6.53
2018-09-05T18:30:42.639Z,5.97
2018-09-05T18:33:11.394Z,6.03
2018-09-05T18:35:40.211Z,6.07
2018-09-05T18:38:09.028Z,6.60
2018-09-05T18:40:37.831Z,5.80
2018-09-05T18:43:06.611Z,5.90
2018-09-05T18:45:35.365Z,6.57
2018-09-05T18:48:04.183Z,6.23
2018-09-05T18:50:33.016Z,6.60
2018-09-05T18:53:07.114Z,6.37
2018-09-05T18:55:35.903Z,6.30
2018-09-05T18:58:04.939Z,6.43
2018-09-05T19:00:34.257Z,7.00
2018-09-05T19:03:03.016Z,8.10
2018-09-05T19:05:32.150Z,6.97
2018-09-05T19:08:01.031Z,6.67
2018-09-05T19:10:29.826Z,7.27
2018-09-05T19:12:58.641Z,7.47
2018-09-05T19:15:27.464Z,6.67
2018-09-05T19:17:56.314Z,6.10
2018-09-05T19:20:25.267Z,7.00
2018-09-05T19:22:54.165Z,6.20
2018-09-05T19:25:22.890Z,6.40
2018-09-05T19:27:52.004Z,6.97
2018-09-05T19:30:20.878Z,6.30
2018-09-05T19:32:49.703Z,7.20
2018-09-05T19:35:18.518Z,6.53
2018-09-05T19:37:47.311Z,6.73
2018-09-05T19:40:16.685Z,5.97
2018-09-05T19:42:45.423Z,6.03
2018-09-05T19:45:14.229Z,5.87
2018-09-05T19:47:43.048Z,6.13
2018-09-05T19:50:11.871Z,6.07
2018-09-05T19:52:41.037Z,5.30
2018-09-05T19:55:09.922Z,5.47
2018-09-05T19:57:38.692Z,5.60
2018-09-05T20:00:07.463Z,6.10
2018-09-05T20:02:36.246Z,5.90
2018-09-05T20:05:05.038Z,7.10
2018-09-05T20:07:33.881Z,5.47
2018-09-05T20:10:02.703Z,6.17
2018-09-05T20:12:31.455Z,6.00
2018-09-05T20:15:00.231Z,6.07
2018-09-05T20:17:28.977Z,5.20
2018-09-05T20:19:57.803Z,6.10
2018-09-05T20:22:33.170Z,6.53
2018-09-05T20:25:01.988Z,5.80
2018-09-05T20:27:30.746Z,6.17
2018-09-05T20:29:59.572Z,6.10
2018-09-05T20:32:28.333Z,6.20
2018-09-05T20:34:57.079Z,5.97
2018-09-05T20:37:25.871Z,6.77
2018-09-05T20:39:54.628Z,6.53
2018-09-05T20:42:23.420Z,5.83
2018-09-05T20:44:52.202Z,6.20
2018-09-05T20:47:20.961Z,6.17
2018-09-05T20:49:49.747Z,6.60
2018-09-05T20:52:18.616Z,6.40
2018-09-05T20:54:47.326Z,6.07
2018-09-05T20:57:16.062Z,6.57
2018-09-05T20:59:44.834Z,7.63
2018-09-05T21:02:13.617Z,6.20
2018-09-05T21:04:42.447Z,7.37
2018-09-05T21:07:11.310Z,6.80
2018-09-05T21:09:40.068Z,7.20
2018-09-05T21:12:51.721Z,7.67
2018-09-05T21:15:20.649Z,6.57
2018-09-05T21:17:49.464Z,6.80
2018-09-05T21:20:19.298Z,6.97
2018-09-05T21:22:48.449Z,6.13
2018-09-05T21:28:04.124Z,6.20
2018-09-05T21:30:32.926Z,5.90
2018-09-05T21:33:08.136Z,5.93
2018-09-05T21:35:37.064Z,5.40
2018-09-05T21:38:05.899Z,6.40
2018-09-05T21:40:38.636Z,5.50
2018-09-05T21:43:07.571Z,5.83
2018-09-05T21:45:36.508Z,5.80
2018-09-05T21:48:06.975Z,5.27
2018-09-05T21:50:36.193Z,5.50
2018-09-05T21:53:05.579Z,5.50
2018-09-05T21:55:34.817Z,6.37
2018-09-05T21:58:04.020Z,5.20
2018-09-05T22:00:33.404Z,5.17
2018-09-05T22:03:02.701Z,5.47
2018-09-05T22:05:31.971Z,5.30
2018-09-05T22:08:00.888Z,5.63
2018-09-05T22:10:30.072Z,5.07
2018-09-05T22:12:59.412Z,5.80
2018-09-05T22:15:32.624Z,5.23
2018-09-05T22:18:01.459Z,5.57
2018-09-05T22:20:30.237Z,5.47
2018-09-05T22:22:59.067Z,5.20
2018-09-05T22:25:28.246Z,5.50
2018-09-05T22:27:57.581Z,5.37
2018-09-05T22:30:26.514Z,5.47
2018-09-05T22:32:55.359Z,5.30
2018-09-05T22:35:24.175Z,5.50
2018-09-05T22:37:53.365Z,5.60
2018-09-05T22:40:22.681Z,6.10
2018-09-05T22:43:58.765Z,6.63
2018-09-05T22:46:33.219Z,6.47
2018-09-05T22:49:07.444Z,6.63
2018-09-05T22:52:19.984Z,5.87
2018-09-05T22:55:00.657Z,6.87
2018-09-05T22:57:57.430Z,6.87
2018-09-05T23:00:39.837Z,5.90
2018-09-05T23:03:14.065Z,6.40
2018-09-05T23:05:49.108Z,6.83
2018-09-05T23:08:29.275Z,6.40
2018-09-05T23:11:09.659Z,6.67
2018-09-05T23:13:51.947Z,6.57
2018-09-05T23:16:26.453Z,6.27
2018-09-05T23:19:14.917Z,5.53
2018-09-05T23:21:43.882Z,5.80
2018-09-05T23:24:13.403Z,6.33
2018-09-05T23:26:42.909Z,6.10
2018-09-05T23:29:12.079Z,6.43
2018-09-05T23:31:41.256Z,7.20
2018-09-05T23:34:11.174Z,6.33
2018-09-05T23:36:41.919Z,5.33
2018-09-05T23:39:10.838Z,5.40
2018-09-05T23:41:40.135Z,6.20
2018-09-05T23:44:09.068Z,6.20
2018-09-05T23:46:37.863Z,6.60
2018-09-05T23:49:06.680Z,7.10
2018-09-05T23:51:35.532Z,6.47
2018-09-05T23:54:05.493Z,6.50
2018-09-05T23:56:38.257Z,6.33
2018-09-05T23:59:07.948Z,6.40
